Time;durP1;ratioP1;P1;durP2;ratioP2;P2;SDS_P1;SDS_P2;PMS_P1;PMS_P2;Temp;Humidity;BMP_temperature;BMP_pressure;BME280_temperature;BME280_humidity;BME280_pressure;Samples;Min_cycle;Max_cycle;Signal;HPM_P1;HPM_P2
2021/09/03 00:00:14;;;;;;;7.90;4.70;;;;;;;11.02;97.31;99536.16;4995388;28;20457;-79
2021/09/03 00:02:42;;;;;;;6.00;4.25;;;;;;;11.04;97.08;99545.84;4994794;28;20061;-79
2021/09/03 00:05:11;;;;;;;7.57;4.32;;;;;;;10.90;97.55;99536.56;4994696;28;20406;-79
2021/09/03 00:07:39;;;;;;;8.80;4.65;;;;;;;10.91;97.63;99534.69;4994912;28;20050;-79
2021/09/03 00:10:08;;;;;;;7.43;4.70;;;;;;;10.93;96.97;99519.03;4994699;28;20462;-79
2021/09/03 00:12:36;;;;;;;7.40;5.20;;;;;;;10.86;96.65;99521.63;4995229;28;20050;-79
2021/09/03 00:15:04;;;;;;;8.68;4.57;;;;;;;10.85;97.83;99538.94;4994035;28;20466;-79
2021/09/03 00:17:31;;;;;;;7.05;4.45;;;;;;;10.69;98.40;99528.16;4975728;28;20054;-79
2021/09/03 00:19:58;;;;;;;9.30;4.38;;;;;;;10.62;98.29;99525.31;4976195;28;20129;-80
2021/09/03 00:22:25;;;;;;;6.68;4.15;;;;;;;10.67;97.96;99531.03;4994625;28;20541;-79
2021/09/03 00:24:51;;;;;;;14.10;5.55;;;;;;;10.58;98.26;99527.53;4994434;28;20062;-79
2021/09/03 00:27:18;;;;;;;7.07;4.60;;;;;;;10.79;98.32;99542.38;4994090;28;20054;-79
2021/09/03 00:29:46;;;;;;;7.15;4.45;;;;;;;10.73;98.66;99507.75;4994443;28;20133;-79
2021/09/03 00:35:55;;;;;;;5.78;3.95;;;;;;;10.61;99.13;99532.63;4986385;28;20386;-79
2021/09/03 00:38:22;;;;;;;7.45;5.00;;;;;;;10.57;99.19;99519.56;4990421;28;20050;-79
2021/09/03 00:40:48;;;;;;;6.07;4.32;;;;;;;10.60;99.33;99520.03;4995342;28;20054;-79
2021/09/03 00:43:15;;;;;;;19.95;8.00;;;;;;;10.60;98.90;99517.31;4994401;28;20513;-79
2021/09/03 00:45:43;;;;;;;7.82;4.80;;;;;;;10.54;98.08;99498.16;4994778;28;20042;-79
2021/09/03 00:48:10;;;;;;;7.43;4.88;;;;;;;10.46;98.22;99509.88;4994517;28;20054;-80
2021/09/03 00:50:37;;;;;;;7.93;5.32;;;;;;;10.56;97.61;99509.69;4995349;28;20054;-79
2021/09/03 00:53:05;;;;;;;6.85;3.83;;;;;;;10.36;97.26;99507.41;4995022;28;20057;-79
2021/09/03 00:55:32;;;;;;;8.25;4.80;;;;;;;10.28;97.67;99513.69;4995068;28;20081;-79
2021/09/03 00:57:59;;;;;;;7.35;4.78;;;;;;;10.35;97.89;99516.56;4994831;28;20078;-79
2021/09/03 01:00:28;;;;;;;7.55;4.88;;;;;;;10.27;98.06;99522.00;4995259;28;20050;-79
2021/09/03 01:02:56;;;;;;;8.40;5.13;;;;;;;10.25;97.98;99505.00;4995127;28;20056;-79
2021/09/03 01:05:24;;;;;;;7.22;4.00;;;;;;;10.36;97.43;99515.53;4994221;28;20053;-78
2021/09/03 01:07:51;;;;;;;5.60;3.75;;;;;;;10.34;97.47;99501.31;4994735;28;20133;-79
2021/09/03 01:10:20;;;;;;;8.13;4.32;;;;;;;10.32;97.77;99513.31;4994161;28;20482;-79
2021/09/03 01:12:46;;;;;;;8.23;4.68;;;;;;;10.08;98.14;99498.78;4994745;28;20050;-79
2021/09/03 01:15:13;;;;;;;6.82;4.50;;;;;;;10.30;98.39;99521.66;4994453;28;20057;-79
2021/09/03 01:17:40;;;;;;;7.60;4.97;;;;;;;10.22;98.37;99506.22;4994978;28;20054;-78
2021/09/03 01:20:11;;;;;;;6.25;4.50;;;;;;;10.01;98.92;99500.47;4994214;28;20061;-79
2021/09/03 01:22:40;;;;;;;7.00;4.65;;;;;;;10.12;98.52;99497.41;4994802;28;20054;-79
2021/09/03 01:25:08;;;;;;;9.05;4.95;;;;;;;10.18;98.61;99514.91;4993872;28;20506;-79
2021/09/03 01:27:35;;;;;;;8.95;4.93;;;;;;;10.04;99.28;99497.41;4994582;28;20050;-79
2021/09/03 01:30:02;;;;;;;7.70;4.95;;;;;;;9.95;98.76;99490.31;4993980;28;20113;-79
2021/09/03 01:32:29;;;;;;;7.90;4.55;;;;;;;9.91;98.96;99498.81;4994594;28;20565;-79
2021/09/03 01:34:56;;;;;;;7.30;4.57;;;;;;;9.87;99.23;99489.31;4993851;28;20840;-79
2021/09/03 01:37:23;;;;;;;7.97;4.70;;;;;;;10.06;99.44;99514.41;4992803;28;20050;-79
2021/09/03 01:39:51;;;;;;;9.60;5.75;;;;;;;10.05;98.93;99499.97;4993077;28;20052;-78
2021/09/03 01:42:18;;;;;;;7.68;5.30;;;;;;;10.02;98.66;99494.88;4993318;28;20046;-79
2021/09/03 01:44:45;;;;;;;9.98;4.70;;;;;;;9.90;98.80;99507.13;4992946;28;20046;-79
2021/09/03 01:47:14;;;;;;;7.55;5.00;;;;;;;9.80;99.65;99501.03;4993025;28;20528;-78
2021/09/03 01:49:41;;;;;;;11.60;4.95;;;;;;;9.73;99.96;99511.75;4992300;28;20046;-78
2021/09/03 01:52:12;;;;;;;7.25;4.72;;;;;;;9.80;99.29;99507.31;4993541;28;20046;-78
2021/09/03 01:54:39;;;;;;;9.48;5.25;;;;;;;9.69;98.58;99492.22;4993522;28;20522;-79
2021/09/03 01:57:08;;;;;;;7.60;4.75;;;;;;;9.70;99.04;99495.78;4994085;28;20494;-79
2021/09/03 01:59:34;;;;;;;11.00;5.28;;;;;;;9.61;99.76;99497.66;4993922;28;20046;-78
2021/09/03 02:02:01;;;;;;;7.78;4.53;;;;;;;9.74;100.00;99506.13;4993296;28;20509;-79
2021/09/03 02:04:28;;;;;;;7.20;4.95;;;;;;;9.50;100.00;99495.28;4992503;28;20054;-78
2021/09/03 02:06:56;;;;;;;6.47;4.57;;;;;;;9.52;100.00;99488.66;4992951;28;20396;-80
2021/09/03 02:09:23;;;;;;;8.20;5.13;;;;;;;9.66;99.91;99508.84;4992229;28;20138;-79
2021/09/03 02:11:50;;;;;;;8.55;5.05;;;;;;;9.66;99.98;99483.56;4992836;28;20054;-79
2021/09/03 02:14:19;;;;;;;7.28;4.72;;;;;;;9.64;99.38;99481.03;4992639;28;20074;-80
2021/09/03 02:16:46;;;;;;;11.18;4.65;;;;;;;9.68;99.30;99508.66;4974520;28;20121;-79
2021/09/03 02:19:13;;;;;;;7.53;4.32;;;;;;;9.77;99.08;99496.81;4973774;28;20051;-80
2021/09/03 02:21:45;;;;;;;6.60;4.50;;;;;;;9.61;99.69;99480.53;4991082;28;20518;-80
2021/09/03 02:24:11;;;;;;;7.43;4.93;;;;;;;9.65;99.53;99490.00;4992907;28;20050;-80
2021/09/03 02:26:38;;;;;;;7.38;4.47;;;;;;;9.48;99.43;99483.75;4992280;28;20162;-80
2021/09/03 02:29:05;;;;;;;5.88;4.40;;;;;;;9.50;99.35;99468.13;4992761;28;20458;-80
2021/09/03 02:31:33;;;;;;;7.28;4.43;;;;;;;9.59;99.39;99490.69;4992406;28;20050;-80
2021/09/03 02:34:05;;;;;;;7.93;5.00;;;;;;;9.45;99.23;99474.06;4992701;28;20050;-80
2021/09/03 02:36:31;;;;;;;6.60;4.57;;;;;;;9.29;99.69;99466.81;4992480;28;20101;-80
2021/09/03 02:38:58;;;;;;;10.27;5.38;;;;;;;9.29;99.73;99466.81;4992459;28;20646;-80
2021/09/03 02:41:25;;;;;;;9.52;5.15;;;;;;;9.50;99.53;99485.28;4992186;28;20046;-80
2021/09/03 02:43:52;;;;;;;8.20;4.93;;;;;;;9.41;100.00;99485.44;4992689;28;20490;-80
2021/09/03 02:46:19;;;;;;;6.25;4.20;;;;;;;9.26;100.00;99466.28;4992580;28;20494;-80
2021/09/03 02:48:47;;;;;;;10.05;4.75;;;;;;;9.37;99.56;99474.09;4992362;28;20054;-80
2021/09/03 02:51:14;;;;;;;10.73;5.32;;;;;;;9.29;99.61;99466.81;4996395;28;20108;-79
2021/09/03 02:53:40;;;;;;;8.07;5.03;;;;;;;9.20;99.10;99457.81;4996232;28;20081;-79
2021/09/03 02:56:07;;;;;;;5.50;4.30;;;;;;;9.46;98.45;99488.50;4996163;28;20061;-79
2021/09/03 02:58:34;;;;;;;8.10;4.60;;;;;;;9.26;98.18;99460.84;4995960;28;20046;-79
2021/09/03 03:01:01;;;;;;;14.07;5.13;;;;;;;9.21;98.71;99477.63;4996197;28;20056;-79
2021/09/03 03:03:28;;;;;;;6.97;4.45;;;;;;;9.10;99.01;99461.72;4995760;28;20058;-79
2021/09/03 03:05:56;;;;;;;9.82;5.28;;;;;;;9.20;99.45;99476.81;4995732;28;20049;-79
2021/09/03 03:08:23;;;;;;;8.68;4.95;;;;;;;9.08;99.24;99458.28;4996172;28;20050;-80
2021/09/03 03:10:49;;;;;;;10.18;4.97;;;;;;;9.09;100.00;99474.41;4995781;28;20046;-80
2021/09/03 03:13:24;;;;;;;7.50;5.05;;;;;;;9.09;99.52;99450.00;4996068;28;20061;-79
2021/09/03 03:15:52;;;;;;;8.00;4.80;;;;;;;9.14;100.00;99465.78;4995273;28;20085;-80
2021/09/03 03:18:19;;;;;;;6.82;4.57;;;;;;;9.34;99.36;99467.13;4995891;28;20411;-80
2021/09/03 03:20:47;;;;;;;6.68;4.32;;;;;;;9.18;99.54;99457.13;4995610;28;20061;-80
2021/09/03 03:23:16;;;;;;;8.25;4.65;;;;;;;9.07;99.54;99441.19;4995840;28;20097;-80
2021/09/03 03:25:43;;;;;;;6.50;4.28;;;;;;;9.09;99.35;99441.84;4995714;28;20061;-80
2021/09/03 03:28:10;;;;;;;10.50;5.15;;;;;;;9.17;98.82;99460.03;4995629;28;20065;-80
2021/09/03 03:30:37;;;;;;;6.13;4.15;;;;;;;9.11;98.81;99442.56;4995589;28;20046;-80
2021/09/03 03:33:04;;;;;;;6.68;4.68;;;;;;;9.09;99.31;99454.56;4995297;28;20058;-79
2021/09/03 03:35:34;;;;;;;8.55;5.00;;;;;;;8.94;99.59;99455.25;4995456;28;20057;-79
2021/09/03 03:38:00;;;;;;;9.13;4.85;;;;;;;8.89;100.00;99443.22;4995040;28;20058;-79
2021/09/03 03:40:29;;;;;;;8.60;4.97;;;;;;;8.87;100.00;99440.66;4995492;28;20054;-80
2021/09/03 03:42:55;;;;;;;14.23;4.65;;;;;;;8.94;100.00;99443.53;4994917;28;20564;-80
2021/09/03 03:45:22;;;;;;;6.82;4.63;;;;;;;8.89;100.00;99445.91;4995278;28;20046;-79
2021/09/03 03:47:49;;;;;;;8.40;5.38;;;;;;;8.97;100.00;99444.06;4995188;28;20114;-80
2021/09/03 03:50:16;;;;;;;12.23;4.53;;;;;;;8.93;100.00;99425.59;4995361;28;20097;-79
2021/09/03 03:52:43;;;;;;;8.90;4.80;;;;;;;8.94;99.62;99438.13;4995175;28;20482;-79
2021/09/03 03:55:11;;;;;;;7.55;4.95;;;;;;;8.97;99.04;99448.63;4994999;28;20050;-79
2021/09/03 03:57:39;;;;;;;5.85;3.88;;;;;;;8.85;99.02;99432.69;4995146;28;20054;-79
2021/09/03 04:00:07;;;;;;;10.65;5.10;;;;;;;8.91;99.37;99435.75;4994830;28;20060;-80
2021/09/03 04:02:33;;;;;;;7.88;4.13;;;;;;;8.76;99.93;99432.84;4994450;28;20050;-79
2021/09/03 04:05:00;;;;;;;13.45;4.95;;;;;;;8.59;100.00;99442.81;4994151;28;20061;-79
2021/09/03 04:07:27;;;;;;;11.35;4.68;;;;;;;8.57;100.00;99431.28;4994863;28;20470;-79
2021/09/03 04:09:54;;;;;;;7.53;4.60;;;;;;;8.54;100.00;99420.78;4994461;28;20050;-80
2021/09/03 04:12:21;;;;;;;6.10;4.53;;;;;;;8.49;100.00;99422.13;4995100;28;20525;-79
2021/09/03 04:14:49;;;;;;;6.60;4.43;;;;;;;8.60;99.65;99429.09;4993791;28;20128;-79
2021/09/03 04:17:16;;;;;;;5.97;4.03;;;;;;;8.56;99.98;99440.41;4994977;28;20047;-79
2021/09/03 04:19:42;;;;;;;7.20;4.60;;;;;;;8.63;100.00;99449.59;4994823;28;20105;-79
2021/09/03 04:22:09;;;;;;;7.07;4.95;;;;;;;8.54;100.00;99429.75;4994416;28;20117;-80
2021/09/03 04:24:36;;;;;;;8.77;5.63;;;;;;;8.55;100.00;99430.59;4994398;28;20061;-79
2021/09/03 04:27:04;;;;;;;8.43;4.93;;;;;;;8.58;100.00;99446.50;4994380;28;20058;-80
2021/09/03 04:29:31;;;;;;;7.97;4.85;;;;;;;8.54;100.00;99458.72;4994814;28;20081;-80
2021/09/03 04:31:59;;;;;;;6.30;4.53;;;;;;;8.48;100.00;99428.53;4994836;28;20055;-80
2021/09/03 04:34:26;;;;;;;8.23;5.30;;;;;;;8.64;100.00;99440.44;4993914;28;20402;-79
2021/09/03 04:36:53;;;;;;;8.07;4.57;;;;;;;8.53;100.00;99422.63;4994634;28;20042;-79
2021/09/03 04:39:20;;;;;;;8.88;5.25;;;;;;;8.40;100.00;99430.34;4994293;28;20074;-79
2021/09/03 04:41:47;;;;;;;8.60;4.90;;;;;;;8.45;100.00;99447.84;4994233;28;20054;-80
2021/09/03 04:44:17;;;;;;;7.65;5.47;;;;;;;8.30;100.00;99434.03;4993893;28;20065;-79
2021/09/03 04:46:45;;;;;;;9.45;4.95;;;;;;;8.32;100.00;99445.56;4994157;28;20386;-79
2021/09/03 04:49:14;;;;;;;6.88;4.95;;;;;;;8.22;100.00;99433.16;4993428;28;20054;-79
2021/09/03 04:51:42;;;;;;;8.73;5.50;;;;;;;8.39;100.00;99467.44;4994181;28;20047;-79
2021/09/03 04:54:11;;;;;;;7.50;5.07;;;;;;;8.43;100.00;99474.22;4992589;28;20086;-79
2021/09/03 04:56:41;;;;;;;7.32;4.70;;;;;;;8.50;100.00;99472.56;4993860;28;20046;-79
2021/09/03 04:59:08;;;;;;;5.90;4.20;;;;;;;8.30;100.00;99457.56;4993841;28;20050;-80
2021/09/03 05:01:34;;;;;;;6.43;4.28;;;;;;;8.41;100.00;99476.22;4993987;28;20053;-80
2021/09/03 05:04:01;;;;;;;9.68;5.38;;;;;;;8.44;100.00;99464.25;4993978;28;20406;-79
2021/09/03 05:06:29;;;;;;;9.52;4.93;;;;;;;8.32;100.00;99475.38;4993029;28;20057;-79
2021/09/03 05:08:56;;;;;;;7.60;5.15;;;;;;;8.30;100.00;99466.53;4993858;28;20168;-79
2021/09/03 05:11:23;;;;;;;8.13;4.97;;;;;;;8.20;100.00;99470.41;4993434;28;20051;-79
2021/09/03 05:13:50;;;;;;;10.55;5.28;;;;;;;8.21;100.00;99478.34;4993723;28;20070;-79
2021/09/03 05:16:17;;;;;;;8.05;4.85;;;;;;;8.26;100.00;99462.47;4993019;28;20058;-79
2021/09/03 05:18:45;;;;;;;13.90;5.35;;;;;;;8.41;100.00;99469.97;4994000;28;20453;-79
2021/09/03 05:21:12;;;;;;;9.35;5.40;;;;;;;8.43;100.00;99465.22;4993581;28;20482;-79
2021/09/03 05:23:40;;;;;;;12.27;5.30;;;;;;;8.45;100.00;99469.50;4992896;28;20054;-79
2021/09/03 05:26:07;;;;;;;10.07;6.50;;;;;;;8.60;100.00;99471.59;4993267;28;20479;-80
2021/09/03 05:28:33;;;;;;;9.55;5.78;;;;;;;8.68;100.00;99469.75;4993106;28;20058;-80
2021/09/03 05:31:00;;;;;;;8.25;5.80;;;;;;;8.76;100.00;99468.06;4993341;28;20057;-79
2021/09/03 05:33:27;;;;;;;7.88;5.65;;;;;;;8.86;100.00;99479.63;4993099;28;20054;-79
2021/09/03 05:35:56;;;;;;;9.20;5.95;;;;;;;8.85;100.00;99456.22;4993171;28;20050;-80
2021/09/03 05:38:23;;;;;;;9.55;6.50;;;;;;;8.91;100.00;99460.16;4992801;28;20520;-80
2021/09/03 05:40:52;;;;;;;11.75;6.38;;;;;;;9.12;100.00;99481.34;4993200;28;20449;-79
2021/09/03 05:43:22;;;;;;;9.13;6.15;;;;;;;9.06;100.00;99454.91;4992859;28;20057;-79
2021/09/03 05:45:49;;;;;;;10.02;6.70;;;;;;;9.29;100.00;99474.06;4986650;28;20471;-80
2021/09/03 05:48:16;;;;;;;9.18;6.57;;;;;;;9.28;100.00;99470.53;4973957;28;20055;-79
2021/09/03 05:50:43;;;;;;;15.77;8.40;;;;;;;9.38;100.00;99471.22;4987450;28;20042;-80
2021/09/03 05:53:11;;;;;;;13.82;7.05;;;;;;;9.47;100.00;99460.34;4993046;28;20050;-80
2021/09/03 05:55:37;;;;;;;12.00;7.32;;;;;;;9.76;100.00;99476.09;4992965;28;20054;-80
2021/09/03 05:58:06;;;;;;;12.88;8.93;;;;;;;9.89;100.00;99460.13;4993358;28;20557;-80
2021/09/03 06:00:32;;;;;;;12.98;8.68;;;;;;;10.42;100.00;99465.09;4992361;28;20042;-80
2021/09/03 06:02:59;;;;;;;13.82;9.77;;;;;;;11.02;100.00;99451.81;4993199;28;20061;-80
2021/09/03 06:05:26;;;;;;;16.70;9.10;;;;;;;11.62;99.84;99456.44;4992602;28;20426;-79
2021/09/03 06:07:53;;;;;;;12.50;8.60;;;;;;;11.93;96.43;99455.47;4992738;28;20050;-79
2021/09/03 06:10:20;;;;;;;13.85;9.30;;;;;;;12.02;94.87;99440.72;4992788;28;20046;-79
2021/09/03 06:12:48;;;;;;;16.05;7.93;;;;;;;12.09;95.17;99464.50;4992873;28;20050;-79
2021/09/03 06:15:16;;;;;;;11.70;8.35;;;;;;;11.93;95.88;99454.63;4992731;28;20410;-79
2021/09/03 06:17:43;;;;;;;13.48;8.15;;;;;;;12.16;95.64;99460.00;4992313;28;20054;-79
2021/09/03 06:20:11;;;;;;;12.18;7.15;;;;;;;12.59;92.26;99438.34;4992863;28;20097;-80
2021/09/03 06:22:38;;;;;;;14.32;7.70;;;;;;;13.32;89.38;99445.59;4992722;28;20051;-80
2021/09/03 06:25:06;;;;;;;13.88;7.63;;;;;;;13.73;87.37;99453.97;4995138;28;20082;-80
2021/09/03 06:27:32;;;;;;;12.43;7.28;;;;;;;13.93;86.11;99434.97;4996946;28;20050;-80
2021/09/03 06:29:59;;;;;;;10.95;7.85;;;;;;;14.16;85.61;99431.13;4996363;28;20058;-80
2021/09/03 06:32:29;;;;;;;11.73;6.57;;;;;;;14.55;84.78;99439.72;4997003;28;20054;-80
2021/09/03 06:34:58;;;;;;;14.80;7.47;;;;;;;14.93;82.81;99422.81;4995911;28;20524;-79
2021/09/03 06:37:26;;;;;;;10.13;6.63;;;;;;;15.17;82.51;99427.69;4996854;28;20054;-80
2021/09/03 06:39:53;;;;;;;11.27;6.80;;;;;;;15.45;82.28;99439.56;4995673;28;20062;-80
2021/09/03 06:42:21;;;;;;;11.02;6.90;;;;;;;15.62;81.07;99424.34;4996617;28;20097;-80
2021/09/03 06:44:48;;;;;;;10.75;6.45;;;;;;;16.00;79.96;99447.56;4996249;28;20050;-80
2021/09/03 06:47:16;;;;;;;14.65;6.57;;;;;;;15.86;80.67;99435.78;4996721;28;20054;-80
2021/09/03 06:49:46;;;;;;;8.60;5.70;;;;;;;16.12;80.50;99451.31;4996349;28;20057;-80
2021/09/03 06:52:14;;;;;;;12.45;6.15;;;;;;;16.05;79.61;99432.16;4996270;28;20054;-80
2021/09/03 06:54:41;;;;;;;12.27;5.97;;;;;;;16.36;79.05;99447.03;4996347;28;20124;-80
2021/09/03 06:57:08;;;;;;;8.43;5.63;;;;;;;16.37;78.65;99437.75;4995664;28;20046;-80
2021/09/03 06:59:35;;;;;;;13.60;6.18;;;;;;;16.29;78.73;99438.00;4996431;28;20445;-80
2021/09/03 07:02:02;;;;;;;9.70;5.03;;;;;;;16.33;79.47;99441.16;4995327;28;20046;-80
2021/09/03 07:04:29;;;;;;;13.13;6.07;;;;;;;16.46;79.32;99435.63;4996140;28;20450;-80
2021/09/03 07:06:57;;;;;;;12.00;5.38;;;;;;;16.57;79.30;99445.91;4995790;28;20498;-79
2021/09/03 07:09:24;;;;;;;7.47;4.78;;;;;;;16.64;78.44;99429.44;4996161;28;20128;-80
2021/09/03 07:11:50;;;;;;;8.93;4.68;;;;;;;16.75;79.94;99436.97;4995139;28;20048;-81
2021/09/03 07:14:18;;;;;;;11.80;5.85;;;;;;;16.86;79.22;99438.19;4995930;28;20054;-81
2021/09/03 07:16:45;;;;;;;6.97;5.05;;;;;;;16.93;78.94;99443.66;4995698;28;20453;-80
2021/09/03 07:19:12;;;;;;;10.35;5.57;;;;;;;17.20;78.77;99443.53;4996137;28;20054;-80
2021/09/03 07:21:38;;;;;;;19.88;9.57;;;;;;;17.24;79.27;99445.59;4995965;28;20053;-80
2021/09/03 07:24:07;;;;;;;10.68;6.30;;;;;;;17.33;77.58;99437.94;4995580;28;20046;-81
2021/09/03 07:26:34;;;;;;;7.57;4.93;;;;;;;17.39;77.48;99441.69;4995477;28;20050;-80
2021/09/03 07:29:03;;;;;;;9.73;4.80;;;;;;;17.29;77.22;99436.69;4995788;28;20105;-81
2021/09/03 07:31:30;;;;;;;6.55;4.45;;;;;;;17.39;75.18;99459.03;4995606;28;20429;-80
2021/09/03 07:33:56;;;;;;;6.05;4.03;;;;;;;17.16;75.68;99437.59;4995096;28;20141;-80
2021/09/03 07:36:23;;;;;;;7.60;4.75;;;;;;;17.32;77.76;99448.06;4994076;28;20458;-81
2021/09/03 07:38:50;;;;;;;7.90;4.20;;;;;;;17.42;75.78;99455.84;4995402;28;20055;-81
2021/09/03 07:41:18;;;;;;;8.30;4.35;;;;;;;17.32;78.05;99450.81;4995339;28;20410;-80
2021/09/03 07:43:45;;;;;;;11.68;4.78;;;;;;;17.39;77.82;99447.16;4995821;28;20121;-81
2021/09/03 07:46:12;;;;;;;7.20;4.40;;;;;;;17.55;77.29;99448.53;4994724;28;20100;-81
2021/09/03 07:48:39;;;;;;;9.25;4.80;;;;;;;17.63;76.72;99442.75;4995320;28;20054;-81
2021/09/03 07:51:05;;;;;;;7.60;5.22;;;;;;;17.72;77.73;99452.44;4995106;28;20057;-81
2021/09/03 07:53:32;;;;;;;7.72;4.40;;;;;;;17.57;75.49;99439.00;4995370;28;20399;-81
2021/09/03 07:55:59;;;;;;;7.97;4.90;;;;;;;17.66;75.88;99440.41;4994432;28;20054;-81
2021/09/03 07:58:28;;;;;;;5.55;3.80;;;;;;;17.85;76.96;99434.94;4995407;28;20064;-81
2021/09/03 08:00:54;;;;;;;10.15;5.28;;;;;;;17.85;74.28;99429.44;4994898;28;20061;-81
2021/09/03 08:03:22;;;;;;;8.73;3.97;;;;;;;17.93;75.18;99442.97;4995239;28;20058;-81
2021/09/03 08:05:49;;;;;;;7.10;4.65;;;;;;;18.14;71.59;99447.19;4995562;28;20105;-82
2021/09/03 08:08:15;;;;;;;8.27;4.50;;;;;;;17.99;74.07;99433.81;4996095;28;20046;-81
2021/09/03 08:10:42;;;;;;;7.45;4.63;;;;;;;17.98;74.13;99423.03;4995617;28;20060;-82
2021/09/03 08:13:10;;;;;;;8.05;4.45;;;;;;;18.11;74.38;99431.16;4995789;28;20050;-82
2021/09/03 08:15:39;;;;;;;7.15;4.47;;;;;;;18.06;74.62;99424.63;4994243;28;20055;-82
2021/09/03 08:18:06;;;;;;;7.15;4.72;;;;;;;17.96;72.64;99423.25;4994997;28;20047;-81
2021/09/03 08:20:33;;;;;;;6.70;4.50;;;;;;;18.10;73.44;99426.69;4994442;28;20050;-81
2021/09/03 08:23:01;;;;;;;5.63;4.22;;;;;;;17.94;71.17;99428.13;4995000;28;20058;-81
2021/09/03 08:25:28;;;;;;;8.13;5.28;;;;;;;18.07;72.91;99424.41;4994594;28;20043;-81
2021/09/03 08:27:54;;;;;;;8.18;4.78;;;;;;;18.21;71.84;99436.94;4994260;28;20061;-80
2021/09/03 08:30:22;;;;;;;11.10;5.05;;;;;;;18.19;72.15;99421.75;4994652;28;20422;-81
2021/09/03 08:32:50;;;;;;;7.07;4.28;;;;;;;18.23;71.48;99428.44;4993762;28;20100;-81
2021/09/03 08:35:17;;;;;;;7.25;4.53;;;;;;;18.36;73.46;99435.72;4994079;28;20054;-81
2021/09/03 08:37:44;;;;;;;7.40;5.00;;;;;;;18.32;72.88;99416.09;4994691;28;20120;-81
2021/09/03 08:40:13;;;;;;;9.13;4.78;;;;;;;18.54;73.32;99434.88;4994063;28;20450;-81
2021/09/03 08:42:41;;;;;;;13.43;5.18;;;;;;;18.36;71.27;99417.28;4994548;28;20050;-81
2021/09/03 08:45:11;;;;;;;10.98;5.43;;;;;;;18.48;73.44;99422.88;4993674;28;20050;-81
2021/09/03 08:47:39;;;;;;;7.87;5.20;;;;;;;18.45;71.86;99419.75;4989878;28;20454;-81
2021/09/03 08:50:13;;;;;;;8.38;4.75;;;;;;;18.66;71.25;99424.78;4982349;28;20293;-81
2021/09/03 08:52:46;;;;;;;6.18;4.45;;;;;;;18.62;71.96;99420.78;4994187;28;20142;-81
2021/09/03 08:55:14;;;;;;;10.23;5.10;;;;;;;18.65;72.11;99414.00;4993682;28;20122;-82
2021/09/03 08:57:43;;;;;;;9.00;5.13;;;;;;;18.79;72.18;99429.28;4994240;28;20081;-81
2021/09/03 09:00:11;;;;;;;6.97;4.63;;;;;;;18.89;70.84;99435.09;4994373;28;20077;-81
2021/09/03 09:02:38;;;;;;;5.78;4.03;;;;;;;18.85;71.81;99422.88;4993446;28;20074;-82
2021/09/03 09:05:07;;;;;;;8.65;4.75;;;;;;;18.91;72.32;99419.19;4994333;28;20112;-81
2021/09/03 09:07:34;;;;;;;8.52;5.03;;;;;;;19.13;72.46;99434.34;4994979;28;20054;-82
2021/09/03 09:10:06;;;;;;;7.00;4.93;;;;;;;19.12;72.20;99427.16;4995352;28;20387;-81
2021/09/03 09:12:33;;;;;;;8.52;4.15;;;;;;;19.23;70.72;99438.22;4994805;28;20476;-81
2021/09/03 09:15:07;;;;;;;7.80;4.50;;;;;;;19.23;71.75;99427.19;4993441;28;20144;-81
2021/09/03 09:17:37;;;;;;;10.57;5.40;;;;;;;19.18;71.86;99415.19;4993891;28;20058;-82
2021/09/03 09:20:06;;;;;;;9.47;5.07;;;;;;;19.19;71.17;99414.13;4993834;28;20046;-81
2021/09/03 09:22:53;;;;;;;7.93;4.57;;;;;;;19.31;71.66;99416.91;4993300;28;20290;-81
2021/09/03 09:25:22;;;;;;;11.38;5.25;;;;;;;19.40;67.15;99421.00;4973940;28;20047;-81
2021/09/03 09:27:49;;;;;;;6.70;4.13;;;;;;;19.51;69.50;99413.81;4975045;28;20062;-81
2021/09/03 09:30:25;;;;;;;8.00;4.35;;;;;;;19.58;70.54;99417.31;4993545;28;20046;-81
2021/09/03 09:33:11;;;;;;;7.20;4.32;;;;;;;19.62;69.78;99408.31;4993595;28;20101;-82
2021/09/03 09:35:43;;;;;;;7.75;4.30;;;;;;;19.62;68.12;99410.25;4992962;28;20054;-81
2021/09/03 09:38:12;;;;;;;8.75;4.90;;;;;;;19.59;69.43;99394.19;4993578;28;20050;-82
2021/09/03 09:40:52;;;;;;;9.57;5.00;;;;;;;19.77;69.99;99399.59;4980810;28;20487;-81
2021/09/03 09:43:31;;;;;;;8.27;5.55;;;;;;;19.75;68.52;99392.63;4974014;28;20051;-82
2021/09/03 09:46:21;;;;;;;9.38;4.32;;;;;;;19.81;71.70;99386.16;4985103;28;20558;-82
2021/09/03 09:48:57;;;;;;;6.45;4.35;;;;;;;19.96;65.31;99400.34;4993529;28;20054;-82
2021/09/03 09:51:26;;;;;;;10.13;4.47;;;;;;;19.94;69.59;99385.09;4992842;28;20046;-82
2021/09/03 09:53:56;;;;;;;8.43;5.10;;;;;;;20.02;68.05;99379.19;4993610;28;20054;-82
2021/09/03 09:56:24;;;;;;;7.13;4.53;;;;;;;20.27;68.37;99394.66;4992409;28;20054;-81
2021/09/03 09:58:54;;;;;;;9.65;4.25;;;;;;;20.26;67.47;99382.75;4992506;28;20509;-82
2021/09/03 10:01:21;;;;;;;6.90;4.47;;;;;;;20.27;65.08;99376.16;4993325;28;20109;-82
2021/09/03 10:03:49;;;;;;;4.88;3.90;;;;;;;20.41;68.49;99375.88;4992984;28;20061;-82
2021/09/03 10:06:17;;;;;;;8.77;4.45;;;;;;;20.49;66.13;99370.81;4991989;28;20128;-81
2021/09/03 10:08:45;;;;;;;11.57;4.05;;;;;;;20.54;63.85;99381.13;4992890;28;20085;-82
2021/09/03 10:11:15;;;;;;;6.13;4.50;;;;;;;20.51;64.98;99374.16;4992437;28;20552;-82
2021/09/03 10:13:43;;;;;;;7.50;4.97;;;;;;;20.67;66.59;99369.84;4993119;28;20469;-82
2021/09/03 10:16:10;;;;;;;6.07;4.25;;;;;;;20.77;63.28;99360.88;4991179;28;20564;-82
2021/09/03 10:18:39;;;;;;;5.35;3.90;;;;;;;20.85;61.62;99359.66;4993197;28;20057;-82
2021/09/03 10:21:07;;;;;;;5.25;3.90;;;;;;;21.01;62.96;99371.84;4993061;28;20062;-82
2021/09/03 10:23:55;;;;;;;13.73;4.57;;;;;;;21.03;63.12;99347.53;4992357;28;20062;-82
2021/09/03 10:26:27;;;;;;;8.57;4.30;;;;;;;21.10;61.56;99347.41;4992908;28;20169;-82
2021/09/03 10:29:14;;;;;;;7.38;4.45;;;;;;;21.35;63.38;99361.66;4992594;28;20054;-81
2021/09/03 10:32:24;;;;;;;6.70;4.03;;;;;;;21.49;61.83;99353.84;4993020;28;20438;-81
2021/09/03 10:35:08;;;;;;;;;;;;;;;21.36;59.67;99359.72;4977609;28;20134;-81
2021/09/03 10:38:05;;;;;;;11.90;4.57;;;;;;;21.46;59.34;99351.59;4991612;28;19972;-81
2021/09/03 10:40:47;;;;;;;5.68;3.70;;;;;;;21.58;63.10;99347.94;4973332;28;20398;-81
2021/09/03 10:43:56;;;;;;;6.07;4.13;;;;;;;21.71;61.92;99331.00;4973462;28;20051;-81
2021/09/03 10:46:25;;;;;;;7.57;3.95;;;;;;;21.95;60.80;99326.06;4964493;28;20054;-82
2021/09/03 10:48:58;;;;;;;5.18;3.72;;;;;;;22.00;53.92;99337.22;4980299;28;20058;-82
2021/09/03 10:55:10;;;;;;;7.80;3.60;;;;;;;21.90;56.24;99334.28;4989908;28;20065;-81
2021/09/03 10:58:11;;;;;;;9.13;4.43;;;;;;;22.05;53.45;99337.25;4992906;28;20093;-82
2021/09/03 11:00:59;;;;;;;10.38;3.97;;;;;;;22.06;54.19;99327.88;4991762;28;20425;-81
2021/09/03 11:07:00;;;;;;;4.85;3.70;;;;;;;22.17;56.83;99315.00;4990820;28;20094;-81
2021/09/03 11:09:49;;;;;;;5.45;3.53;;;;;;;22.30;55.03;99326.81;4991890;28;20082;-81
2021/09/03 11:12:24;;;;;;;7.97;3.83;;;;;;;22.40;53.49;99310.31;4996347;28;20047;-81
2021/09/03 11:14:57;;;;;;;7.15;3.38;;;;;;;22.56;52.67;99312.16;4995965;28;20446;-82
2021/09/03 11:17:31;;;;;;;6.70;3.75;;;;;;;22.62;53.10;99318.59;4996115;28;20054;-81
2021/09/03 11:20:10;;;;;;;7.80;4.13;;;;;;;22.72;53.85;99317.88;4995942;28;20080;-81
2021/09/03 11:22:38;;;;;;;5.30;3.58;;;;;;;22.96;52.25;99310.91;4984303;28;20157;-81
2021/09/03 11:25:07;;;;;;;6.90;3.53;;;;;;;23.03;51.29;99312.63;4977120;28;20526;-81
2021/09/03 11:27:36;;;;;;;6.68;3.50;;;;;;;22.98;51.12;99291.25;4980798;28;20081;-82
2021/09/03 11:30:05;;;;;;;8.20;4.10;;;;;;;22.81;50.65;99299.69;4996872;28;20058;-82
2021/09/03 11:32:36;;;;;;;6.80;3.78;;;;;;;22.88;51.25;99303.06;4996720;28;20049;-82
2021/09/03 11:35:05;;;;;;;6.20;4.03;;;;;;;23.14;51.18;99286.69;4996779;28;20050;-81
2021/09/03 11:37:37;;;;;;;7.82;3.95;;;;;;;23.38;53.60;99298.25;4996864;28;20050;-82
2021/09/03 11:40:13;;;;;;;4.85;3.38;;;;;;;23.43;49.38;99292.72;4996518;28;20080;-82
2021/09/03 11:42:42;;;;;;;7.55;3.78;;;;;;;23.42;49.43;99296.59;4995840;28;20054;-82
2021/09/03 11:45:14;;;;;;;4.07;2.92;;;;;;;23.40;47.46;99278.56;4995025;28;20053;-81
2021/09/03 11:48:02;;;;;;;6.55;3.25;;;;;;;23.52;47.19;99289.47;4995655;28;20145;-81
2021/09/03 11:50:31;;;;;;;7.55;3.72;;;;;;;23.57;47.80;99275.63;4995159;28;20058;-81
2021/09/03 11:53:00;;;;;;;5.00;3.50;;;;;;;23.66;48.19;99287.88;4995573;28;20050;-82